Terminal Aerodrome Forecast
Issued by NWS Grand Forks, ND

Home | Current Version | Previous Version | Text Only | Print | Product List | Glossary On
Versions: 1 2 3 4 5 6 7 8 9 10 11 12 13 14 15 16 17 18 19
154
FTUS43 KFGF 240520
TAFGFK
TAF
KGFK 240520Z 2406/2506 06013KT P6SM BKN010 OVC015
     FM240900 07014KT P6SM OVC015
     FM241500 07014KT 4SM -RA BKN015 OVC025
     FM242300 02012KT 5SM -RA BR OVC015=

USA.gov is the U.S. government's official web portal to all federal, state and local government web resources and services.